Time;durP1;ratioP1;P1;durP2;ratioP2;P2;SDS_P1;SDS_P2;PMS_P1;PMS_P2;Temp;Humidity;BMP_temperature;BMP_pressure;BME280_temperature;BME280_humidity;BME280_pressure;Samples;Min_cycle;Max_cycle;Signal;HPM_P1;HPM_P2
2023/10/27 00:00:30;;;;;;;0.15;0.15;;;;;;;19.29;56.43;99360.38;5072238;28;20032;-68
2023/10/27 00:02:56;;;;;;;0.20;0.20;;;;;;;19.43;56.01;99356.75;5072100;28;20032;-69
2023/10/27 00:05:21;;;;;;;0.20;0.20;;;;;;;19.49;55.54;99344.56;5071814;28;20420;-69
2023/10/27 00:07:47;;;;;;;0.10;0.10;;;;;;;19.60;55.21;99343.91;5072187;28;20055;-68
2023/10/27 00:10:13;;;;;;;0.10;0.10;;;;;;;19.68;54.90;99345.84;5072667;28;20036;-69
2023/10/27 00:12:38;;;;;;;0.10;0.10;;;;;;;19.36;55.88;99353.69;5071926;28;20040;-68
2023/10/27 00:15:05;;;;;;;0.25;0.25;;;;;;;19.56;55.59;99353.06;5071834;28;20055;-70
2023/10/27 00:17:30;;;;;;;0.10;0.10;;;;;;;19.42;55.56;99353.19;5071753;28;20124;-68
2023/10/27 00:19:56;;;;;;;0.20;0.20;;;;;;;19.55;55.03;99355.00;5071633;28;20119;-69
2023/10/27 00:22:21;;;;;;;0.20;0.20;;;;;;;19.58;55.15;99351.63;5071797;28;20097;-69
2023/10/27 00:24:47;;;;;;;0.10;0.10;;;;;;;19.74;54.67;99352.75;5089924;28;20456;-69
2023/10/27 00:27:12;;;;;;;0.15;0.15;;;;;;;19.23;56.27;99349.94;5056322;28;20384;-69
2023/10/27 00:29:37;;;;;;;0.10;0.10;;;;;;;19.70;54.78;99350.97;5071576;28;20057;-69
2023/10/27 00:32:03;;;;;;;0.20;0.20;;;;;;;19.46;55.55;99342.50;5071652;28;20028;-68
2023/10/27 00:34:29;;;;;;;0.10;0.10;;;;;;;19.32;55.51;99339.09;5071336;28;20037;-68
2023/10/27 00:36:54;;;;;;;0.30;0.30;;;;;;;19.50;55.27;99340.72;5071206;28;20025;-69
2023/10/27 00:39:19;;;;;;;0.20;0.20;;;;;;;19.56;55.05;99342.16;5070671;28;20037;-70
2023/10/27 00:41:45;;;;;;;0.20;0.20;;;;;;;19.50;54.80;99330.63;5070538;28;20044;-69
2023/10/27 00:44:10;;;;;;;0.20;0.20;;;;;;;19.58;54.74;99329.00;5070489;28;20484;-69
2023/10/27 00:46:36;;;;;;;0.20;0.20;;;;;;;19.32;55.39;99328.97;5070472;28;20028;-69
2023/10/27 00:49:02;;;;;;;0.22;0.22;;;;;;;19.31;55.50;99335.53;5071014;28;20020;-69
2023/10/27 00:51:28;;;;;;;0.20;0.20;;;;;;;18.89;57.11;99325.38;5070659;28;20059;-69
2023/10/27 00:53:54;;;;;;;0.20;0.20;;;;;;;18.65;58.17;99331.25;5070003;28;20491;-69
2023/10/27 00:56:21;;;;;;;0.20;0.20;;;;;;;18.57;58.55;99334.72;5070176;28;20559;-69
2023/10/27 00:58:46;;;;;;;0.10;0.10;;;;;;;18.55;58.50;99325.25;5069919;28;20029;-69
2023/10/27 01:01:15;;;;;;;0.20;0.20;;;;;;;18.55;58.57;99327.97;5070555;28;20404;-69
2023/10/27 01:03:41;;;;;;;0.20;0.20;;;;;;;18.69;58.10;99325.97;5070177;28;20036;-68
2023/10/27 01:06:07;;;;;;;0.20;0.20;;;;;;;18.58;58.79;99332.78;5070066;28;20041;-69
2023/10/27 01:08:32;;;;;;;0.20;0.20;;;;;;;18.66;58.55;99321.13;5069896;28;20445;-69
2023/10/27 01:10:57;;;;;;;0.30;0.30;;;;;;;18.47;59.25;99326.03;5069715;28;20039;-69
2023/10/27 01:13:23;;;;;;;0.30;0.30;;;;;;;18.45;58.59;99333.69;5069909;28;20465;-68
2023/10/27 01:15:48;;;;;;;0.20;0.20;;;;;;;18.53;58.54;99331.03;5070147;28;20024;-69
2023/10/27 01:18:13;;;;;;;0.10;0.10;;;;;;;18.40;58.83;99321.81;5070572;28;20056;-70
2023/10/27 01:20:39;;;;;;;0.10;0.10;;;;;;;18.04;60.06;99320.34;5070288;28;20488;-69
2023/10/27 01:23:04;;;;;;;0.15;0.15;;;;;;;18.45;58.92;99311.94;5070409;28;20074;-69
2023/10/27 01:25:30;;;;;;;0.10;0.10;;;;;;;17.97;60.15;99315.34;5070158;28;20133;-68
2023/10/27 01:27:57;;;;;;;0.20;0.20;;;;;;;18.15;59.71;99306.19;5071011;28;20024;-69
2023/10/27 01:30:23;;;;;;;0.20;0.20;;;;;;;18.26;59.04;99312.94;5070630;28;20047;-69
2023/10/27 01:32:48;;;;;;;0.10;0.10;;;;;;;17.98;60.60;99308.00;5070364;28;20722;-68
2023/10/27 01:35:14;;;;;;;0.20;0.20;;;;;;;18.33;59.37;99305.16;5070449;28;20036;-68
2023/10/27 01:37:40;;;;;;;0.25;0.25;;;;;;;18.59;58.76;99299.03;5070274;28;20460;-69
2023/10/27 01:40:06;;;;;;;0.30;0.30;;;;;;;18.49;59.10;99299.31;5070707;28;20087;-69
2023/10/27 01:42:34;;;;;;;0.15;0.15;;;;;;;18.45;58.92;99303.78;5070540;28;20147;-68
2023/10/27 01:45:04;;;;;;;0.10;0.10;;;;;;;18.54;58.34;99299.16;5070420;28;20041;-69
2023/10/27 01:47:30;;;;;;;0.20;0.20;;;;;;;18.67;58.53;99301.00;5070118;28;20551;-69
2023/10/27 01:49:55;;;;;;;0.20;0.20;;;;;;;18.49;58.86;99291.97;5070277;28;20024;-67
2023/10/27 01:52:21;;;;;;;0.20;0.20;;;;;;;19.08;56.74;99299.50;5070515;28;20024;-67
2023/10/27 01:54:46;;;;;;;0.10;0.10;;;;;;;18.72;57.64;99300.81;5070578;28;20029;-69
2023/10/27 01:57:11;;;;;;;0.20;0.20;;;;;;;18.07;60.09;99298.78;5070251;28;20041;-68
2023/10/27 01:59:37;;;;;;;0.20;0.20;;;;;;;18.19;59.74;99300.91;5070149;28;20098;-69
2023/10/27 02:02:02;;;;;;;0.20;0.20;;;;;;;18.39;58.95;99297.66;5070096;28;20423;-69
2023/10/27 02:04:28;;;;;;;0.30;0.30;;;;;;;18.26;59.41;99302.06;5070096;28;20021;-69
2023/10/27 02:06:55;;;;;;;0.10;0.10;;;;;;;18.30;59.84;99305.75;5052131;28;20041;-69
2023/10/27 02:09:20;;;;;;;0.30;0.30;;;;;;;19.05;56.53;99307.47;5069966;28;20112;-68
2023/10/27 02:11:46;;;;;;;0.17;0.17;;;;;;;19.47;55.44;99295.84;5069857;28;20029;-69
2023/10/27 02:14:12;;;;;;;0.20;0.20;;;;;;;19.42;55.14;99300.66;5069984;28;20044;-68
2023/10/27 02:16:37;;;;;;;0.10;0.10;;;;;;;19.36;55.70;99294.53;5082062;28;20029;-69
2023/10/27 02:19:02;;;;;;;0.10;0.10;;;;;;;19.43;55.25;99303.06;5075580;28;20049;-68
2023/10/27 02:21:28;;;;;;;0.20;0.20;;;;;;;19.29;55.94;99297.75;5069705;28;20138;-69
2023/10/27 02:23:53;;;;;;;0.10;0.10;;;;;;;19.45;55.00;99300.81;5069955;28;20492;-69
2023/10/27 02:26:19;;;;;;;0.10;0.10;;;;;;;19.42;55.06;99298.72;5070001;28;20028;-68
2023/10/27 02:28:45;;;;;;;0.20;0.20;;;;;;;19.28;56.03;99298.84;5074239;28;20029;-69
2023/10/27 02:31:10;;;;;;;0.22;0.22;;;;;;;19.54;54.86;99303.53;5074190;28;20024;-68
2023/10/27 02:33:36;;;;;;;0.28;0.28;;;;;;;19.32;55.78;99307.16;5073877;28;20392;-69
2023/10/27 02:36:02;;;;;;;0.20;0.20;;;;;;;19.38;56.02;99302.41;5073976;28;20028;-68
2023/10/27 02:38:27;;;;;;;0.20;0.20;;;;;;;19.46;55.52;99304.34;5073786;28;20060;-69
2023/10/27 02:40:53;;;;;;;0.20;0.20;;;;;;;19.44;55.72;99303.88;5073636;28;20025;-68
2023/10/27 02:43:18;;;;;;;0.10;0.10;;;;;;;19.09;56.75;99297.53;5073927;28;20019;-70
2023/10/27 02:45:44;;;;;;;0.20;0.20;;;;;;;19.26;55.72;99305.75;5055737;28;20082;-69
2023/10/27 02:48:09;;;;;;;0.20;0.20;;;;;;;19.45;55.39;99306.25;5073422;28;20590;-69
2023/10/27 02:50:34;;;;;;;0.20;0.20;;;;;;;19.53;54.79;99308.19;5073485;28;20024;-68
2023/10/27 02:53:00;;;;;;;0.10;0.10;;;;;;;19.51;55.05;99298.72;5073444;28;20035;-68
2023/10/27 02:55:25;;;;;;;0.10;0.10;;;;;;;19.20;55.87;99307.03;5073215;28;20024;-68
2023/10/27 02:57:51;;;;;;;0.20;0.20;;;;;;;19.29;55.64;99294.22;5073393;28;20028;-70
2023/10/27 03:00:16;;;;;;;0.20;0.20;;;;;;;19.17;55.86;99294.03;5073319;28;20384;-68
2023/10/27 03:02:42;;;;;;;0.13;0.13;;;;;;;19.15;55.79;99291.63;5073399;28;20037;-68
2023/10/27 03:05:08;;;;;;;0.28;0.28;;;;;;;19.65;54.59;99296.63;5073534;28;20032;-71
2023/10/27 03:07:34;;;;;;;0.10;0.10;;;;;;;19.85;53.73;99296.75;5073272;28;20350;-68
2023/10/27 03:09:59;;;;;;;0.20;0.20;;;;;;;19.54;54.80;99298.06;5073899;28;20047;-70
2023/10/27 03:12:24;;;;;;;0.13;0.13;;;;;;;19.85;53.61;99304.94;5072914;28;20036;-68
2023/10/27 03:14:50;;;;;;;0.25;0.25;;;;;;;19.93;53.29;99292.44;5072709;28;20032;-69
2023/10/27 03:17:16;;;;;;;0.10;0.10;;;;;;;19.90;53.44;99293.88;5073097;28;20032;-69
2023/10/27 03:19:41;;;;;;;0.20;0.20;;;;;;;19.74;53.87;99297.41;5072691;28;20155;-69
2023/10/27 03:22:06;;;;;;;0.20;0.20;;;;;;;19.98;53.21;99293.06;5073644;28;20020;-69
2023/10/27 03:24:32;;;;;;;0.20;0.20;;;;;;;19.70;54.30;99293.72;5073062;28;20492;-69
2023/10/27 03:26:57;;;;;;;0.20;0.20;;;;;;;19.92;53.98;99296.28;5072894;28;20049;-68
2023/10/27 03:29:22;;;;;;;0.10;0.10;;;;;;;19.35;55.29;99292.16;5072948;28;20025;-69
2023/10/27 03:31:50;;;;;;;0.20;0.20;;;;;;;19.70;54.71;99293.72;5072780;28;20028;-69
2023/10/27 03:34:15;;;;;;;0.20;0.20;;;;;;;19.99;53.44;99291.91;5073439;28;20032;-69
2023/10/27 03:36:41;;;;;;;0.28;0.28;;;;;;;20.12;53.42;99290.94;5072699;28;20507;-70
2023/10/27 03:39:07;;;;;;;0.10;0.10;;;;;;;19.94;54.19;99291.28;5071667;28;20037;-70
2023/10/27 03:41:32;;;;;;;0.10;0.10;;;;;;;20.05;53.63;99289.81;5072574;28;20286;-69
2023/10/27 03:43:58;;;;;;;0.20;0.20;;;;;;;19.85;53.77;99282.34;5072533;28;20186;-69
2023/10/27 03:46:23;;;;;;;0.20;0.20;;;;;;;20.08;53.45;99281.81;5072271;28;20383;-68
2023/10/27 03:48:49;;;;;;;0.20;0.20;;;;;;;20.09;53.22;99288.84;5055132;28;20082;-69
2023/10/27 03:51:15;;;;;;;0.20;0.20;;;;;;;19.97;53.56;99280.53;5072438;28;20041;-69
2023/10/27 03:53:41;;;;;;;0.13;0.13;;;;;;;20.11;53.22;99283.06;5072261;28;20125;-69
2023/10/27 03:56:06;;;;;;;0.20;0.20;;;;;;;20.25;52.80;99277.44;5072358;28;20121;-69
2023/10/27 03:58:32;;;;;;;0.32;0.32;;;;;;;20.26;52.62;99277.13;5072072;28;20024;-68
2023/10/27 04:00:57;;;;;;;0.20;0.20;;;;;;;20.28;53.15;99284.97;5070958;28;20020;-68
2023/10/27 04:03:23;;;;;;;0.20;0.20;;;;;;;20.06;53.72;99280.53;5060524;28;20353;-69
2023/10/27 04:05:48;;;;;;;0.20;0.20;;;;;;;19.77;54.55;99274.97;5055232;28;20033;-68
2023/10/27 04:08:13;;;;;;;0.30;0.30;;;;;;;19.60;55.16;99275.78;5064071;28;20033;-69
2023/10/27 04:10:39;;;;;;;0.20;0.20;;;;;;;19.65;55.12;99269.38;5066924;28;20434;-68
2023/10/27 04:13:04;;;;;;;0.13;0.13;;;;;;;19.56;54.92;99269.38;5071758;28;20466;-69
2023/10/27 04:15:30;;;;;;;0.25;0.25;;;;;;;19.92;53.85;99258.91;5071583;28;20040;-69
2023/10/27 04:17:55;;;;;;;0.10;0.10;;;;;;;20.00;54.01;99260.00;5071075;28;20040;-69
2023/10/27 04:20:21;;;;;;;0.10;0.10;;;;;;;19.74;54.41;99260.06;5071600;28;20688;-69
2023/10/27 04:22:46;;;;;;;0.20;0.20;;;;;;;19.66;54.73;99254.63;5071825;28;20033;-68
2023/10/27 04:25:12;;;;;;;0.10;0.10;;;;;;;19.17;56.25;99254.00;5072342;28;20021;-69
2023/10/27 04:27:38;;;;;;;0.20;0.20;;;;;;;19.53;55.08;99252.88;5071745;28;20028;-69
2023/10/27 04:30:07;;;;;;;0.20;0.20;;;;;;;19.76;54.41;99251.56;5071774;28;20029;-69
2023/10/27 04:32:32;;;;;;;0.10;0.10;;;;;;;20.02;53.79;99249.56;5071560;28;20068;-68
2023/10/27 04:34:58;;;;;;;0.20;0.20;;;;;;;20.20;52.97;99253.06;5071447;28;20072;-70
2023/10/27 04:37:23;;;;;;;0.20;0.20;;;;;;;19.71;53.78;99249.81;5071707;28;20024;-68
2023/10/27 04:39:48;;;;;;;0.32;0.32;;;;;;;19.82;53.79;99253.78;5071987;28;20039;-69
2023/10/27 04:42:14;;;;;;;0.10;0.10;;;;;;;19.03;55.86;99247.09;5071321;28;20040;-69
2023/10/27 04:44:39;;;;;;;0.20;0.20;;;;;;;19.63;55.27;99249.81;5071445;28;20029;-69
2023/10/27 04:47:05;;;;;;;0.10;0.10;;;;;;;19.36;55.53;99248.22;5070921;28;20029;-69
2023/10/27 04:49:30;;;;;;;0.30;0.30;;;;;;;19.62;54.72;99248.22;5070806;28;20467;-70
2023/10/27 04:51:55;;;;;;;0.10;0.10;;;;;;;19.61;54.69;99247.44;5071841;28;20020;-70
2023/10/27 04:54:21;;;;;;;0.10;0.10;;;;;;;18.99;56.50;99248.84;5071217;28;20048;-69
2023/10/27 04:56:47;;;;;;;0.20;0.20;;;;;;;17.68;61.30;99247.06;5052284;28;20048;-70
2023/10/27 04:59:13;;;;;;;0.20;0.20;;;;;;;17.92;61.02;99250.25;5055893;28;20048;-69
2023/10/27 05:01:38;;;;;;;0.10;0.10;;;;;;;19.17;56.75;99247.72;5050902;28;20051;-70
2023/10/27 05:04:04;;;;;;;0.20;0.20;;;;;;;18.88;57.93;99242.09;5054014;28;20021;-70
2023/10/27 05:06:30;;;;;;;0.30;0.30;;;;;;;19.37;56.46;99241.69;5087299;28;20051;-69
2023/10/27 05:08:56;;;;;;;0.10;0.10;;;;;;;19.18;56.64;99241.19;5070896;28;20652;-69
2023/10/27 05:11:22;;;;;;;0.20;0.20;;;;;;;18.93;57.72;99236.50;5070623;28;20036;-69
2023/10/27 05:13:48;;;;;;;0.20;0.20;;;;;;;18.44;59.09;99236.91;5070842;28;20041;-70
2023/10/27 05:16:13;;;;;;;0.10;0.10;;;;;;;18.96;57.91;99233.16;5071070;28;20056;-69
2023/10/27 05:18:38;;;;;;;0.22;0.22;;;;;;;18.81;57.71;99230.91;5070232;28;20098;-69
2023/10/27 05:21:04;;;;;;;0.20;0.20;;;;;;;18.80;58.30;99226.56;5070403;28;20572;-69
2023/10/27 05:23:29;;;;;;;0.10;0.10;;;;;;;18.60;59.09;99225.25;5070494;28;20031;-70
2023/10/27 05:25:55;;;;;;;0.20;0.20;;;;;;;18.40;59.66;99223.09;5070614;28;20082;-71
2023/10/27 05:28:20;;;;;;;0.30;0.30;;;;;;;18.95;58.30;99226.09;5070852;28;20039;-69
2023/10/27 05:30:50;;;;;;;0.20;0.20;;;;;;;19.13;57.35;99224.97;5070751;28;20037;-70
2023/10/27 05:33:15;;;;;;;0.20;0.20;;;;;;;19.05;57.57;99220.34;5064052;28;20051;-69
2023/10/27 05:35:41;;;;;;;0.20;0.20;;;;;;;18.88;57.91;99228.50;5059164;28;20044;-69
2023/10/27 05:38:06;;;;;;;0.20;0.20;;;;;;;18.84;58.29;99227.53;5050550;28;20036;-69
2023/10/27 05:40:31;;;;;;;0.30;0.30;;;;;;;18.88;57.83;99220.34;5050355;28;20040;-69
2023/10/27 05:42:57;;;;;;;0.20;0.20;;;;;;;18.76;58.54;99220.16;5050833;28;20032;-70
2023/10/27 05:45:23;;;;;;;0.20;0.20;;;;;;;18.64;58.82;99220.78;5065730;28;20037;-69
2023/10/27 05:47:48;;;;;;;0.20;0.20;;;;;;;18.77;57.87;99221.78;5068941;28;20025;-69
2023/10/27 05:50:14;;;;;;;0.10;0.10;;;;;;;18.80;58.29;99219.22;5069721;28;20024;-69
2023/10/27 05:52:39;;;;;;;0.10;0.10;;;;;;;18.73;58.60;99216.13;5069439;28;20020;-68
2023/10/27 05:55:05;;;;;;;0.10;0.10;;;;;;;18.35;59.86;99224.03;5070083;28;20016;-69
2023/10/27 05:57:30;;;;;;;0.10;0.10;;;;;;;17.80;61.48;99228.28;5069636;28;20036;-68
2023/10/27 05:59:56;;;;;;;0.15;0.15;;;;;;;18.31;60.32;99217.63;5069881;28;20081;-69
2023/10/27 06:02:21;;;;;;;0.20;0.20;;;;;;;18.30;60.85;99221.44;5068911;28;20090;-70
2023/10/27 06:04:46;;;;;;;0.20;0.20;;;;;;;18.47;59.59;99219.94;5070015;28;20040;-70
2023/10/27 06:07:15;;;;;;;0.20;0.20;;;;;;;18.40;59.74;99221.16;5070481;28;20027;-69
2023/10/27 06:09:41;;;;;;;0.28;0.28;;;;;;;18.89;58.54;99216.47;5067918;28;20044;-68
2023/10/27 06:12:07;;;;;;;0.13;0.13;;;;;;;19.13;57.53;99219.53;5070158;28;20063;-69
2023/10/27 06:14:32;;;;;;;0.20;0.20;;;;;;;17.94;61.12;99225.47;5069729;28;20044;-69
2023/10/27 06:16:58;;;;;;;0.30;0.30;;;;;;;18.35;60.05;99226.75;5069727;28;20040;-69
2023/10/27 06:19:24;;;;;;;0.15;0.15;;;;;;;18.28;60.52;99231.84;5069774;28;20047;-68
2023/10/27 06:21:49;;;;;;;0.20;0.20;;;;;;;18.44;60.15;99226.81;5070432;28;20020;-69
2023/10/27 06:24:15;;;;;;;0.20;0.20;;;;;;;17.99;61.16;99220.69;5069821;28;20441;-70
2023/10/27 06:26:41;;;;;;;0.20;0.20;;;;;;;18.59;59.75;99233.72;5069843;28;20703;-69
2023/10/27 06:29:07;;;;;;;0.20;0.20;;;;;;;18.21;60.15;99234.22;5070032;28;20024;-69
2023/10/27 06:31:32;;;;;;;0.30;0.30;;;;;;;18.52;59.29;99236.91;5069932;28;20048;-68
2023/10/27 06:33:58;;;;;;;0.30;0.30;;;;;;;18.99;57.75;99238.75;5070280;28;20021;-69
2023/10/27 06:36:25;;;;;;;0.28;0.28;;;;;;;18.91;58.03;99236.81;5068150;28;20032;-69
2023/10/27 06:38:50;;;;;;;0.30;0.30;;;;;;;19.16;57.60;99240.69;5069974;28;20090;-69
2023/10/27 06:41:53;;;;;;;0.22;0.22;;;;;;;19.08;57.79;99234.13;5069598;28;20040;-69
2023/10/27 06:44:18;;;;;;;0.13;0.13;;;;;;;18.92;57.98;99237.63;5069781;28;20031;-69
2023/10/27 06:46:45;;;;;;;0.10;0.10;;;;;;;18.51;59.34;99240.75;5069821;28;20096;-69
2023/10/27 06:49:11;;;;;;;0.10;0.10;;;;;;;18.54;59.32;99245.56;5070626;28;20170;-69
2023/10/27 06:51:37;;;;;;;0.22;0.22;;;;;;;18.42;58.88;99239.88;5070212;28;20043;-69
2023/10/27 06:54:02;;;;;;;0.28;0.28;;;;;;;18.52;59.37;99241.53;5070035;28;20040;-69
2023/10/27 06:56:28;;;;;;;0.20;0.20;;;;;;;18.94;57.63;99236.19;5070735;28;20468;-69
2023/10/27 06:58:54;;;;;;;0.20;0.20;;;;;;;19.45;56.34;99238.16;5074226;28;20037;-69
2023/10/27 07:01:19;;;;;;;0.10;0.10;;;;;;;19.35;56.58;99243.91;5070183;28;20387;-69
2023/10/27 07:03:45;;;;;;;0.10;0.10;;;;;;;19.48;56.50;99245.66;5069693;28;20071;-69
2023/10/27 07:06:11;;;;;;;0.20;0.20;;;;;;;19.19;57.38;99249.03;5069415;28;20033;-69
2023/10/27 07:08:37;;;;;;;0.28;0.28;;;;;;;19.09;57.49;99243.09;5051856;28;20067;-69
2023/10/27 07:11:03;;;;;;;0.10;0.10;;;;;;;19.37;56.90;99251.78;5069836;28;20037;-69
2023/10/27 07:14:06;;;;;;;0.20;0.20;;;;;;;19.43;57.09;99245.03;5069645;28;20028;-70
2023/10/27 07:16:32;;;;;;;0.30;0.30;;;;;;;19.15;57.27;99248.06;5072971;28;20093;-69
2023/10/27 07:18:57;;;;;;;0.20;0.20;;;;;;;19.34;56.77;99253.19;5073375;28;20485;-69
2023/10/27 07:21:22;;;;;;;0.22;0.22;;;;;;;19.14;57.63;99249.16;5073248;28;20508;-70
2023/10/27 07:23:48;;;;;;;0.10;0.10;;;;;;;18.81;58.97;99250.75;5073006;28;20036;-70
2023/10/27 07:26:15;;;;;;;0.20;0.20;;;;;;;18.24;60.10;99249.91;5073318;28;20385;-70
2023/10/27 07:28:41;;;;;;;0.10;0.10;;;;;;;18.22;60.80;99256.78;5073106;28;20441;-70
2023/10/27 07:31:08;;;;;;;0.20;0.20;;;;;;;18.77;59.44;99254.44;5073645;28;20028;-69
2023/10/27 07:33:33;;;;;;;0.10;0.10;;;;;;;19.14;57.87;99257.34;5066978;28;20079;-69
2023/10/27 07:36:00;;;;;;;0.30;0.30;;;;;;;18.95;57.98;99259.56;5073281;28;20550;-70
2023/10/27 07:38:26;;;;;;;0.10;0.10;;;;;;;18.73;58.50;99256.19;5072879;28;20036;-69
2023/10/27 07:40:56;;;;;;;0.20;0.20;;;;;;;19.14;57.43;99251.88;5073240;28;20135;-69
2023/10/27 07:43:21;;;;;;;0.30;0.30;;;;;;;19.24;57.08;99256.25;5073067;28;20024;-68
2023/10/27 07:45:47;;;;;;;0.20;0.20;;;;;;;18.73;59.45;99267.06;5072622;28;20765;-70
2023/10/27 07:48:12;;;;;;;0.13;0.13;;;;;;;19.27;56.92;99263.75;5072080;28;20048;-70
2023/10/27 07:50:39;;;;;;;0.20;0.20;;;;;;;18.97;58.02;99260.06;5072463;28;20484;-69
2023/10/27 07:53:04;;;;;;;0.30;0.30;;;;;;;18.53;59.85;99263.00;5071954;28;20039;-70
2023/10/27 07:55:30;;;;;;;0.20;0.20;;;;;;;18.09;60.96;99260.41;5054085;28;20020;-70
2023/10/27 07:57:55;;;;;;;0.30;0.30;;;;;;;19.10;58.23;99259.09;5072377;28;20464;-69
2023/10/27 08:00:20;;;;;;;0.28;0.28;;;;;;;19.10;58.07;99264.53;5072076;28;20036;-69
2023/10/27 08:02:46;;;;;;;0.20;0.20;;;;;;;18.04;61.04;99257.81;5072293;28;20044;-70
2023/10/27 08:05:11;;;;;;;0.20;0.20;;;;;;;19.27;57.71;99258.31;5072061;28;20400;-69
2023/10/27 08:07:37;;;;;;;0.10;0.10;;;;;;;18.40;60.38;99261.97;5072352;28;20090;-69
2023/10/27 08:10:07;;;;;;;0.20;0.20;;;;;;;18.35;60.22;99255.88;5072984;28;20029;-69
2023/10/27 08:12:32;;;;;;;0.20;0.20;;;;;;;19.03;58.22;99261.50;5072286;28;20060;-71
2023/10/27 08:14:58;;;;;;;0.28;0.28;;;;;;;19.41;57.43;99264.44;5072576;28;20088;-70
2023/10/27 08:17:23;;;;;;;0.17;0.17;;;;;;;18.86;58.71;99261.50;5072161;28;20400;-70
2023/10/27 08:19:49;;;;;;;0.17;0.17;;;;;;;19.17;58.06;99262.16;5071890;28;20043;-69
2023/10/27 08:22:14;;;;;;;0.30;0.30;;;;;;;18.78;58.73;99261.47;5072744;28;20035;-70
2023/10/27 08:24:39;;;;;;;0.20;0.20;;;;;;;18.84;59.11;99262.91;5072322;28;20036;-70
2023/10/27 08:27:05;;;;;;;0.10;0.10;;;;;;;19.07;58.91;99262.47;5072500;28;20033;-69
2023/10/27 08:29:30;;;;;;;0.20;0.20;;;;;;;19.79;56.51;99267.28;5072797;28;20468;-70
2023/10/27 08:31:56;;;;;;;0.20;0.20;;;;;;;19.64;56.72;99267.75;5072258;28;20055;-70
2023/10/27 08:34:21;;;;;;;0.30;0.30;;;;;;;19.45;57.60;99270.03;5071830;28;20380;-68
2023/10/27 08:36:47;;;;;;;0.20;0.20;;;;;;;19.16;57.86;99268.72;5072296;28;20078;-69
2023/10/27 08:39:12;;;;;;;0.10;0.10;;;;;;;19.72;56.75;99266.97;5071683;28;20048;-70
2023/10/27 08:41:38;;;;;;;0.10;0.10;;;;;;;19.41;57.53;99264.44;5071827;28;20140;-70
2023/10/27 08:44:05;;;;;;;0.20;0.20;;;;;;;19.21;58.75;99265.84;5071943;28;20033;-70
2023/10/27 08:46:32;;;;;;;0.10;0.10;;;;;;;19.70;56.56;99261.84;5072180;28;20024;-69
2023/10/27 08:48:57;;;;;;;0.20;0.20;;;;;;;19.86;56.49;99257.47;5072770;28;20024;-70
2023/10/27 08:51:23;;;;;;;0.20;0.20;;;;;;;19.93;56.44;99257.75;5072109;28;20052;-71
2023/10/27 08:53:49;;;;;;;0.20;0.20;;;;;;;19.86;56.50;99259.41;5072239;28;20042;-70
2023/10/27 08:56:15;;;;;;;0.20;0.20;;;;;;;19.87;56.85;99259.06;5072296;28;20036;-70
2023/10/27 08:58:47;;;;;;;0.20;0.20;;;;;;;19.48;58.31;99258.50;5072165;28;20024;-70
2023/10/27 09:01:13;;;;;;;0.10;0.10;;;;;;;20.13;55.90;99264.44;5072284;28;20421;-70
2023/10/27 09:03:39;;;;;;;0.20;0.20;;;;;;;20.21;55.60;99263.66;5051983;28;20033;-70
2023/10/27 09:06:04;;;;;;;0.20;0.20;;;;;;;20.06;55.64;99266.88;5051666;28;20037;-70
2023/10/27 09:08:30;;;;;;;0.20;0.20;;;;;;;20.14;55.73;99266.06;5052001;28;20021;-69
2023/10/27 09:10:55;;;;;;;0.10;0.10;;;;;;;20.04;56.07;99261.75;5053194;28;20029;-71
2023/10/27 09:13:21;;;;;;;0.22;0.22;;;;;;;19.73;57.07;99261.19;5053412;28;20438;-67
2023/10/27 09:15:48;;;;;;;0.20;0.20;;;;;;;19.15;59.13;99263.59;5071743;28;20013;-71
2023/10/27 09:18:13;;;;;;;0.20;0.20;;;;;;;20.02;56.24;99266.75;5070983;28;20063;-71
2023/10/27 09:20:50;;;;;;;0.28;0.28;;;;;;;20.02;56.50;99269.47;5071203;28;20044;-69
2023/10/27 09:23:16;;;;;;;0.10;0.10;;;;;;;19.61;57.72;99276.59;5071308;28;20029;-70
2023/10/27 09:25:41;;;;;;;0.17;0.17;;;;;;;19.70;57.34;99277.38;5070764;28;20508;-69
2023/10/27 09:28:07;;;;;;;0.20;0.20;;;;;;;19.60;57.19;99278.50;5071558;28;20114;-70
2023/10/27 09:30:37;;;;;;;0.20;0.20;;;;;;;19.82;57.09;99277.53;5071389;28;20039;-70
2023/10/27 09:33:22;;;;;;;0.30;0.30;;;;;;;20.32;55.61;99283.19;5054050;28;20067;-70
2023/10/27 09:35:49;;;;;;;0.20;0.20;;;;;;;20.49;55.09;99275.75;5066486;28;20044;-69
2023/10/27 09:38:16;;;;;;;0.30;0.30;;;;;;;19.67;57.28;99276.13;5070603;28;20040;-70
2023/10/27 09:40:43;;;;;;;0.22;0.22;;;;;;;19.99;56.64;99280.19;5070931;28;20384;-71
2023/10/27 09:43:16;;;;;;;0.20;0.20;;;;;;;19.92;56.72;99277.19;5053318;28;20032;-70
2023/10/27 09:45:51;;;;;;;0.20;0.20;;;;;;;20.23;56.01;99280.50;5070101;28;20059;-70
2023/10/27 09:48:21;;;;;;;0.20;0.20;;;;;;;19.35;58.81;99283.97;5078177;28;20033;-70
2023/10/27 09:50:48;;;;;;;0.20;0.20;;;;;;;19.54;57.62;99284.44;5071396;28;20067;-70
2023/10/27 09:53:14;;;;;;;0.20;0.20;;;;;;;19.87;56.92;99275.41;5071131;28;20135;-70
2023/10/27 09:55:40;;;;;;;0.20;0.20;;;;;;;20.20;56.31;99283.06;5071316;28;20024;-70
2023/10/27 09:58:06;;;;;;;0.20;0.20;;;;;;;20.02;56.13;99285.84;5071205;28;20011;-69
2023/10/27 10:00:32;;;;;;;0.20;0.20;;;;;;;20.27;55.69;99286.09;5071179;28;20047;-69
2023/10/27 10:02:59;;;;;;;0.20;0.20;;;;;;;20.31;55.58;99287.84;5071195;28;20481;-70
2023/10/27 10:05:25;;;;;;;0.20;0.20;;;;;;;20.47;54.78;99288.91;5071106;28;20067;-70
2023/10/27 10:07:56;;;;;;;0.20;0.20;;;;;;;20.47;55.10;99294.38;5071238;28;20056;-70
2023/10/27 10:10:22;;;;;;;0.20;0.20;;;;;;;20.67;54.61;99290.91;5071013;28;20021;-69
2023/10/27 10:13:07;;;;;;;0.20;0.20;;;;;;;20.50;55.15;99298.38;5071065;28;20099;-70
2023/10/27 10:15:38;;;;;;;0.20;0.20;;;;;;;20.10;56.06;99289.66;5070399;28;20037;-70
2023/10/27 10:18:05;;;;;;;;;;;;;;;20.75;54.50;99290.06;5071535;28;20068;-69
2023/10/27 10:20:49;;;;;;;0.20;0.20;;;;;;;20.78;54.74;99294.03;5070594;28;20424;-70
2023/10/27 10:23:15;;;;;;;0.20;0.20;;;;;;;20.73;54.73;99289.59;5070002;28;20492;-70
2023/10/27 10:25:57;;;;;;;0.20;0.20;;;;;;;20.92;53.92;99283.69;5070893;28;20048;-69
2023/10/27 10:28:27;;;;;;;0.10;0.10;;;;;;;20.75;54.48;99289.25;5051674;28;20549;-70
2023/10/27 10:31:11;;;;;;;0.20;0.20;;;;;;;20.21;55.78;99287.38;5071125;28;20500;-70
2023/10/27 10:33:40;;;;;;;0.10;0.10;;;;;;;20.47;55.60;99286.19;5051182;28;20032;-70
2023/10/27 10:36:14;;;;;;;0.15;0.15;;;;;;;20.05;56.68;99293.34;5070394;28;20029;-70
2023/10/27 10:38:43;;;;;;;0.10;0.10;;;;;;;20.37;55.70;99292.00;5070939;28;20048;-70
2023/10/27 10:41:09;;;;;;;0.20;0.20;;;;;;;20.04;56.89;99286.31;5070589;28;20469;-71
2023/10/27 10:43:36;;;;;;;0.20;0.20;;;;;;;20.33;55.68;99291.06;5088505;28;20067;-70
2023/10/27 10:46:03;;;;;;;0.20;0.20;;;;;;;20.52;55.42;99290.66;5079725;28;20440;-69
2023/10/27 10:48:31;;;;;;;0.20;0.20;;;;;;;20.47;55.51;99278.00;5071772;28;20090;-70
2023/10/27 10:51:03;;;;;;;0.30;0.30;;;;;;;20.50;55.77;99284.72;5073866;28;20032;-70
2023/10/27 10:53:30;;;;;;;0.10;0.10;;;;;;;20.48;55.61;99290.50;5073566;28;20040;-70
2023/10/27 10:56:00;;;;;;;0.20;0.20;;;;;;;20.70;55.07;99292.97;5074145;28;20040;-70
2023/10/27 10:58:27;;;;;;;0.10;0.10;;;;;;;20.55;56.28;99290.81;5056123;28;20143;-69
2023/10/27 11:00:55;;;;;;;0.13;0.13;;;;;;;20.09;56.69;99286.13;5074560;28;20035;-70
2023/10/27 11:03:22;;;;;;;0.20;0.20;;;;;;;20.47;55.56;99288.91;5065550;28;20148;-69
2023/10/27 11:05:50;;;;;;;0.10;0.10;;;;;;;20.46;55.93;99291.97;5073250;28;20047;-70
2023/10/27 11:08:26;;;;;;;0.20;0.20;;;;;;;20.82;54.85;99287.59;5073844;28;20040;-70
2023/10/27 11:10:59;;;;;;;0.10;0.10;;;;;;;20.87;54.57;99286.63;5074098;28;20024;-70
2023/10/27 11:13:26;;;;;;;0.10;0.10;;;;;;;20.71;55.18;99288.31;5072679;28;20502;-69
2023/10/27 11:15:51;;;;;;;0.13;0.13;;;;;;;20.73;54.89;99292.31;5075374;28;20127;-71
2023/10/27 11:18:17;;;;;;;0.10;0.10;;;;;;;20.99;54.41;99290.22;5073836;28;20119;-70
2023/10/27 11:20:44;;;;;;;0.10;0.10;;;;;;;20.78;55.07;99292.13;5065146;28;20460;-70
2023/10/27 11:23:14;;;;;;;0.30;0.30;;;;;;;21.00;54.77;99283.63;5072928;28;20499;-70
2023/10/27 11:25:41;;;;;;;0.20;0.20;;;;;;;20.80;55.00;99287.13;5058692;28;20111;-70
2023/10/27 11:28:26;;;;;;;0.20;0.20;;;;;;;20.97;54.72;99288.97;5068697;28;20515;-70
2023/10/27 11:31:19;;;;;;;0.20;0.20;;;;;;;20.75;55.39;99287.34;5067940;28;20044;-69